sensor_id;sensor_type;location;lat;lon;timestamp;pressure;altitude;pressure_sealevel;temperature;humidity
55590;BME280;41452;42.780;23.116;2023-02-15T00:01:46;95533.88;;;-0.17;100.00
55590;BME280;41452;42.780;23.116;2023-02-15T00:04:13;95539.03;;;-0.17;100.00
55590;BME280;41452;42.780;23.116;2023-02-15T00:06:39;95535.91;;;-0.21;100.00
55590;BME280;41452;42.780;23.116;2023-02-15T00:09:04;95537.53;;;-0.20;100.00
55590;BME280;41452;42.780;23.116;2023-02-15T00:11:31;95538.19;;;-0.27;100.00
55590;BME280;41452;42.780;23.116;2023-02-15T00:14:12;95543.22;;;-0.26;100.00
55590;BME280;41452;42.780;23.116;2023-02-15T00:16:39;95537.25;;;-0.26;100.00
55590;BME280;41452;42.780;23.116;2023-02-15T00:19:06;95532.91;;;-0.26;100.00
55590;BME280;41452;42.780;23.116;2023-02-15T00:21:32;95539.41;;;-0.31;100.00
55590;BME280;41452;42.780;23.116;2023-02-15T00:23:59;95536.03;;;-0.22;100.00
55590;BME280;41452;42.780;23.116;2023-02-15T00:26:25;95512.25;;;-0.35;100.00
55590;BME280;41452;42.780;23.116;2023-02-15T00:28:51;95538.59;;;-0.22;100.00
55590;BME280;41452;42.780;23.116;2023-02-15T00:31:17;95526.94;;;-0.26;100.00
55590;BME280;41452;42.780;23.116;2023-02-15T00:33:42;95529.63;;;-0.18;100.00
55590;BME280;41452;42.780;23.116;2023-02-15T00:36:09;95518.91;;;-0.23;100.00
55590;BME280;41452;42.780;23.116;2023-02-15T00:38:35;95528.03;;;-0.19;100.00
55590;BME280;41452;42.780;23.116;2023-02-15T00:41:03;95527.22;;;-0.20;100.00
55590;BME280;41452;42.780;23.116;2023-02-15T00:43:30;95537.13;;;-0.15;100.00
55590;BME280;41452;42.780;23.116;2023-02-15T00:45:55;95537.38;;;-0.18;100.00
55590;BME280;41452;42.780;23.116;2023-02-15T00:48:21;95541.19;;;-0.22;100.00
55590;BME280;41452;42.780;23.116;2023-02-15T00:50:53;95519.44;;;-0.29;100.00
55590;BME280;41452;42.780;23.116;2023-02-15T00:53:19;95528.28;;;-0.22;100.00
55590;BME280;41452;42.780;23.116;2023-02-15T00:55:44;95543.50;;;-0.19;100.00
55590;BME280;41452;42.780;23.116;2023-02-15T00:58:11;95498.63;;;-0.47;100.00
55590;BME280;41452;42.780;23.116;2023-02-15T01:00:37;95534.00;;;-0.18;100.00
55590;BME280;41452;42.780;23.116;2023-02-15T01:03:04;95532.63;;;-0.23;100.00
55590;BME280;41452;42.780;23.116;2023-02-15T01:05:30;95536.28;;;-0.25;100.00
55590;BME280;41452;42.780;23.116;2023-02-15T01:07:56;95537.78;;;-0.32;100.00
55590;BME280;41452;42.780;23.116;2023-02-15T01:10:22;95541.59;;;-0.27;100.00
55590;BME280;41452;42.780;23.116;2023-02-15T01:12:50;95542.13;;;-0.23;100.00
55590;BME280;41452;42.780;23.116;2023-02-15T01:15:15;95538.59;;;-0.22;100.00
55590;BME280;41452;42.780;23.116;2023-02-15T01:17:40;95514.00;;;-0.36;100.00
55590;BME280;41452;42.780;23.116;2023-02-15T01:20:06;95530.72;;;-0.30;100.00
55590;BME280;41452;42.780;23.116;2023-02-15T01:22:32;95526.38;;;-0.30;100.00
55590;BME280;41452;42.780;23.116;2023-02-15T01:24:57;95520.53;;;-0.32;100.00
55590;BME280;41452;42.780;23.116;2023-02-15T01:27:23;95521.59;;;-0.34;100.00
55590;BME280;41452;42.780;23.116;2023-02-15T01:29:48;95516.56;;;-0.36;100.00
55590;BME280;41452;42.780;23.116;2023-02-15T01:32:14;95516.56;;;-0.36;100.00
55590;BME280;41452;42.780;23.116;2023-02-15T01:34:39;95518.34;;;-0.36;100.00
55590;BME280;41452;42.780;23.116;2023-02-15T01:37:04;95517.25;;;-0.34;100.00
55590;BME280;41452;42.780;23.116;2023-02-15T01:39:30;95515.22;;;-0.30;100.00
55590;BME280;41452;42.780;23.116;2023-02-15T01:41:55;95523.38;;;-0.35;100.00
55590;BME280;41452;42.780;23.116;2023-02-15T01:47:09;95514.81;;;-0.26;100.00
55590;BME280;41452;42.780;23.116;2023-02-15T01:49:38;95511.44;;;-0.26;100.00
55590;BME280;41452;42.780;23.116;2023-02-15T01:52:07;95482.06;;;-0.45;100.00
55590;BME280;41452;42.780;23.116;2023-02-15T01:54:34;95512.13;;;-0.24;100.00
55590;BME280;41452;42.780;23.116;2023-02-15T01:57:04;95517.03;;;-0.21;100.00
55590;BME280;41452;42.780;23.116;2023-02-15T01:59:31;95518.75;;;-0.22;100.00
55590;BME280;41452;42.780;23.116;2023-02-15T02:01:59;95511.31;;;-0.25;100.00
55590;BME280;41452;42.780;23.116;2023-02-15T02:04:39;95519.31;;;-0.18;100.00
55590;BME280;41452;42.780;23.116;2023-02-15T02:07:06;95507.38;;;-0.19;100.00
55590;BME280;41452;42.780;23.116;2023-02-15T02:09:34;95511.56;;;-0.18;100.00
55590;BME280;41452;42.780;23.116;2023-02-15T02:12:01;95508.44;;;-0.22;100.00
55590;BME280;41452;42.780;23.116;2023-02-15T02:14:26;95520.94;;;-0.27;100.00
55590;BME280;41452;42.780;23.116;2023-02-15T02:16:58;95517.94;;;-0.22;100.00
55590;BME280;41452;42.780;23.116;2023-02-15T02:31:28;95524.63;;;-0.10;100.00
55590;BME280;41452;42.780;23.116;2023-02-15T02:36:45;95528.00;;;-0.09;100.00
55590;BME280;41452;42.780;23.116;2023-02-15T02:39:33;95522.44;;;-0.14;100.00
55590;BME280;41452;42.780;23.116;2023-02-15T02:47:26;95528.00;;;-0.09;100.00
55590;BME280;41452;42.780;23.116;2023-02-15T02:50:02;95530.59;;;-0.09;100.00
55590;BME280;41452;42.780;23.116;2023-02-15T02:58:03;95535.25;;;-0.03;100.00
55590;BME280;41452;42.780;23.116;2023-02-15T03:00:40;95528.28;;;-0.03;100.00
55590;BME280;41452;42.780;23.116;2023-02-15T03:03:38;95527.78;;;0.04;100.00
55590;BME280;41452;42.780;23.116;2023-02-15T03:06:17;95517.28;;;-0.05;100.00
55590;BME280;41452;42.780;23.116;2023-02-15T03:08:48;95531.28;;;0.03;100.00
55590;BME280;41452;42.780;23.116;2023-02-15T03:11:16;95531.69;;;0.08;100.00
55590;BME280;41452;42.780;23.116;2023-02-15T03:13:42;95534.03;;;0.11;100.00
55590;BME280;41452;42.780;23.116;2023-02-15T03:16:09;95537.94;;;0.15;100.00
55590;BME280;41452;42.780;23.116;2023-02-15T03:19:08;95536.72;;;0.19;100.00
55590;BME280;41452;42.780;23.116;2023-02-15T03:21:49;95543.25;;;0.23;100.00
55590;BME280;41452;42.780;23.116;2023-02-15T03:24:26;95545.69;;;0.25;100.00
55590;BME280;41452;42.780;23.116;2023-02-15T03:26:54;95533.06;;;0.22;100.00
55590;BME280;41452;42.780;23.116;2023-02-15T03:29:23;95532.91;;;0.33;100.00
55590;BME280;41452;42.780;23.116;2023-02-15T03:31:54;95528.28;;;0.36;100.00
55590;BME280;41452;42.780;23.116;2023-02-15T03:34:22;95549.34;;;0.51;100.00
55590;BME280;41452;42.780;23.116;2023-02-15T03:36:51;95546.06;;;0.49;100.00
55590;BME280;41452;42.780;23.116;2023-02-15T03:39:37;95548.13;;;0.46;100.00
55590;BME280;41452;42.780;23.116;2023-02-15T03:42:27;95551.78;;;0.53;100.00
55590;BME280;41452;42.780;23.116;2023-02-15T03:45:05;95548.66;;;0.59;100.00
55590;BME280;41452;42.780;23.116;2023-02-15T03:47:37;95550.41;;;0.59;100.00
55590;BME280;41452;42.780;23.116;2023-02-15T03:50:09;95546.22;;;0.57;100.00
55590;BME280;41452;42.780;23.116;2023-02-15T03:52:57;95538.19;;;0.61;100.00
55590;BME280;41452;42.780;23.116;2023-02-15T03:55:23;95542.13;;;0.55;100.00
55590;BME280;41452;42.780;23.116;2023-02-15T03:57:49;95540.22;;;0.57;100.00
55590;BME280;41452;42.780;23.116;2023-02-15T04:00:36;95545.66;;;0.54;100.00
55590;BME280;41452;42.780;23.116;2023-02-15T04:03:38;95542.13;;;0.55;100.00
55590;BME280;41452;42.780;23.116;2023-02-15T04:06:04;95522.31;;;0.36;100.00
55590;BME280;41452;42.780;23.116;2023-02-15T04:08:30;95548.25;;;0.54;100.00
55590;BME280;41452;42.780;23.116;2023-02-15T04:11:14;95540.38;;;0.46;100.00
55590;BME280;41452;42.780;23.116;2023-02-15T04:13:40;95534.38;;;0.35;100.00
55590;BME280;41452;42.780;23.116;2023-02-15T04:16:06;95549.34;;;0.42;100.00
55590;BME280;41452;42.780;23.116;2023-02-15T04:18:37;95554.38;;;0.33;100.00
55590;BME280;41452;42.780;23.116;2023-02-15T04:21:22;95563.63;;;0.26;100.00
55590;BME280;41452;42.780;23.116;2023-02-15T04:24:07;95567.06;;;0.27;100.00
55590;BME280;41452;42.780;23.116;2023-02-15T04:26:52;95557.66;;;0.06;100.00
55590;BME280;41452;42.780;23.116;2023-02-15T04:29:18;95569.22;;;0.12;100.00
55590;BME280;41452;42.780;23.116;2023-02-15T04:31:44;95576.16;;;0.11;100.00
55590;BME280;41452;42.780;23.116;2023-02-15T04:34:10;95574.25;;;0.13;100.00
55590;BME280;41452;42.780;23.116;2023-02-15T04:36:39;95576.56;;;0.07;100.00
55590;BME280;41452;42.780;23.116;2023-02-15T04:39:05;95571.38;;;0.07;100.00
55590;BME280;41452;42.780;23.116;2023-02-15T04:41:31;95580.22;;;0.04;100.00
55590;BME280;41452;42.780;23.116;2023-02-15T04:43:56;95585.66;;;0.01;100.00
55590;BME280;41452;42.780;23.116;2023-02-15T04:46:22;95580.88;;;-0.04;100.00
55590;BME280;41452;42.780;23.116;2023-02-15T04:48:48;95587.28;;;-0.08;100.00
55590;BME280;41452;42.780;23.116;2023-02-15T04:51:13;95569.47;;;-0.21;100.00
55590;BME280;41452;42.780;23.116;2023-02-15T04:53:38;95551.78;;;-0.25;100.00
55590;BME280;41452;42.780;23.116;2023-02-15T04:56:04;95577.75;;;-0.07;100.00
55590;BME280;41452;42.780;23.116;2023-02-15T04:58:29;95576.00;;;-0.07;100.00
55590;BME280;41452;42.780;23.116;2023-02-15T05:00:55;95580.50;;;-0.09;100.00
55590;BME280;41452;42.780;23.116;2023-02-15T05:03:21;95586.47;;;-0.08;100.00
55590;BME280;41452;42.780;23.116;2023-02-15T05:05:46;95595.69;;;-0.06;100.00
55590;BME280;41452;42.780;23.116;2023-02-15T05:08:12;95587.69;;;-0.03;100.00
55590;BME280;41452;42.780;23.116;2023-02-15T05:10:37;95592.88;;;-0.03;100.00
55590;BME280;41452;42.780;23.116;2023-02-15T05:13:02;95586.75;;;-0.02;100.00
55590;BME280;41452;42.780;23.116;2023-02-15T05:15:28;95593.03;;;0.06;100.00
55590;BME280;41452;42.780;23.116;2023-02-15T05:17:53;95602.00;;;0.11;100.00
55590;BME280;41452;42.780;23.116;2023-02-15T05:20:18;95594.13;;;0.13;100.00
55590;BME280;41452;42.780;23.116;2023-02-15T05:22:44;95598.72;;;0.09;100.00
55590;BME280;41452;42.780;23.116;2023-02-15T05:25:09;95600.09;;;0.04;100.00
55590;BME280;41452;42.780;23.116;2023-02-15T05:39:00;95621.97;;;1.35;97.74
55590;BME280;41452;42.780;23.116;2023-02-15T05:41:25;95627.19;;;1.15;96.79
55590;BME280;41452;42.780;23.116;2023-02-15T05:43:50;95628.63;;;1.00;98.04
55590;BME280;41452;42.780;23.116;2023-02-15T05:46:16;95632.44;;;0.86;98.61
55590;BME280;41452;42.780;23.116;2023-02-15T05:48:41;95630.00;;;0.74;99.26
55590;BME280;41452;42.780;23.116;2023-02-15T05:51:09;95630.56;;;0.68;99.31
55590;BME280;41452;42.780;23.116;2023-02-15T05:53:37;95633.69;;;0.62;99.75
55590;BME280;41452;42.780;23.116;2023-02-15T05:56:05;95630.00;;;0.55;99.43
55590;BME280;41452;42.780;23.116;2023-02-15T05:58:36;95591.66;;;0.31;99.50
55590;BME280;41452;42.780;23.116;2023-02-15T06:01:21;95630.97;;;0.44;100.00
55590;BME280;41452;42.780;23.116;2023-02-15T06:03:48;95588.09;;;0.12;100.00
55590;BME280;41452;42.780;23.116;2023-02-15T06:06:14;95636.94;;;0.35;100.00
55590;BME280;41452;42.780;23.116;2023-02-15T06:08:40;95635.72;;;0.29;100.00
55590;BME280;41452;42.780;23.116;2023-02-15T06:11:06;95574.06;;;-0.14;100.00
55590;BME280;41452;42.780;23.116;2023-02-15T06:13:33;95641.97;;;0.17;100.00
55590;BME280;41452;42.780;23.116;2023-02-15T06:15:58;95634.91;;;0.19;100.00
55590;BME280;41452;42.780;23.116;2023-02-15T06:18:24;95629.59;;;0.21;100.00
55590;BME280;41452;42.780;23.116;2023-02-15T06:20:49;95615.03;;;0.10;100.00
55590;BME280;41452;42.780;23.116;2023-02-15T06:23:15;95636.28;;;0.23;100.00
55590;BME280;41452;42.780;23.116;2023-02-15T06:25:41;95639.25;;;0.28;100.00
55590;BME280;41452;42.780;23.116;2023-02-15T06:28:06;95581.03;;;-0.05;100.00
55590;BME280;41452;42.780;23.116;2023-02-15T06:30:31;95638.47;;;0.37;100.00
55590;BME280;41452;42.780;23.116;2023-02-15T06:32:57;95567.44;;;-0.07;100.00
55590;BME280;41452;42.780;23.116;2023-02-15T06:35:22;95641.44;;;0.43;100.00
55590;BME280;41452;42.780;23.116;2023-02-15T06:37:48;95643.50;;;0.49;100.00
55590;BME280;41452;42.780;23.116;2023-02-15T06:40:14;95640.63;;;0.52;100.00
55590;BME280;41452;42.780;23.116;2023-02-15T06:42:39;95558.91;;;0.02;100.00
55590;BME280;41452;42.780;23.116;2023-02-15T06:45:06;95636.16;;;0.54;100.00
55590;BME280;41452;42.780;23.116;2023-02-15T06:47:31;95646.59;;;0.62;100.00
55590;BME280;41452;42.780;23.116;2023-02-15T06:49:57;95639.00;;;0.70;100.00
55590;BME280;41452;42.780;23.116;2023-02-15T06:52:22;95624.16;;;0.53;100.00
55590;BME280;41452;42.780;23.116;2023-02-15T06:54:48;95631.66;;;0.66;100.00
55590;BME280;41452;42.780;23.116;2023-02-15T06:57:13;95645.50;;;0.84;100.00
55590;BME280;41452;42.780;23.116;2023-02-15T06:59:39;95617.22;;;0.73;100.00
55590;BME280;41452;42.780;23.116;2023-02-15T07:02:04;95641.94;;;1.05;100.00
55590;BME280;41452;42.780;23.116;2023-02-15T07:04:29;95641.25;;;1.12;100.00
55590;BME280;41452;42.780;23.116;2023-02-15T07:06:55;95638.94;;;1.09;100.00
55590;BME280;41452;42.780;23.116;2023-02-15T07:09:21;95645.03;;;1.18;100.00
55590;BME280;41452;42.780;23.116;2023-02-15T07:11:47;95636.47;;;1.18;100.00
55590;BME280;41452;42.780;23.116;2023-02-15T07:14:31;95650.34;;;1.26;100.00
55590;BME280;41452;42.780;23.116;2023-02-15T07:16:57;95650.31;;;1.36;100.00
55590;BME280;41452;42.780;23.116;2023-02-15T07:19:22;95661.72;;;1.43;99.33
55590;BME280;41452;42.780;23.116;2023-02-15T07:21:47;95657.53;;;1.42;99.05
55590;BME280;41452;42.780;23.116;2023-02-15T07:24:14;95656.28;;;1.46;98.54
55590;BME280;41452;42.780;23.116;2023-02-15T07:26:39;95648.00;;;1.33;97.78
55590;BME280;41452;42.780;23.116;2023-02-15T07:29:04;95652.50;;;1.31;98.54
55590;BME280;41452;42.780;23.116;2023-02-15T07:31:30;95641.06;;;1.33;98.80
55590;BME280;41452;42.780;23.116;2023-02-15T07:33:55;95648.00;;;1.33;98.80
55590;BME280;41452;42.780;23.116;2023-02-15T07:36:21;95642.41;;;1.38;98.66
55590;BME280;41452;42.780;23.116;2023-02-15T07:38:46;95625.28;;;1.27;98.35
55590;BME280;41452;42.780;23.116;2023-02-15T07:41:13;95650.13;;;1.47;97.72
55590;BME280;41452;42.780;23.116;2023-02-15T07:43:41;95648.91;;;1.51;97.53
55590;BME280;41452;42.780;23.116;2023-02-15T07:46:09;95648.91;;;1.51;97.34
55590;BME280;41452;42.780;23.116;2023-02-15T07:48:37;95647.38;;;1.59;96.72
55590;BME280;41452;42.780;23.116;2023-02-15T07:51:04;95639.31;;;1.62;97.19
55590;BME280;41452;42.780;23.116;2023-02-15T07:53:30;95634.16;;;1.62;96.06
55590;BME280;41452;42.780;23.116;2023-02-15T07:56:04;95634.09;;;1.71;96.05
55590;BME280;41452;42.780;23.116;2023-02-15T07:58:30;95637.63;;;1.70;95.43
55590;BME280;41452;42.780;23.116;2023-02-15T08:01:14;95603.63;;;1.56;95.33
55590;BME280;41452;42.780;23.116;2023-02-15T08:03:40;95600.25;;;1.55;94.92
55590;BME280;41452;42.780;23.116;2023-02-15T08:06:06;95632.16;;;1.74;94.88
55590;BME280;41452;42.780;23.116;2023-02-15T08:08:34;95629.72;;;1.72;94.97
55590;BME280;41452;42.780;23.116;2023-02-15T08:11:20;95630.97;;;1.68;95.27
55590;BME280;41452;42.780;23.116;2023-02-15T08:14:07;95625.53;;;1.61;95.70
55590;BME280;41452;42.780;23.116;2023-02-15T08:19:08;95631.91;;;1.67;96.32
55590;BME280;41452;42.780;23.116;2023-02-15T08:21:35;95644.88;;;1.67;95.31
55590;BME280;41452;42.780;23.116;2023-02-15T08:24:01;95640.66;;;1.66;95.58
55590;BME280;41452;42.780;23.116;2023-02-15T08:26:29;95650.50;;;1.62;95.27
55590;BME280;41452;42.780;23.116;2023-02-15T08:28:55;95647.28;;;1.78;95.82
55590;BME280;41452;42.780;23.116;2023-02-15T08:31:21;95648.50;;;1.74;94.89
55590;BME280;41452;42.780;23.116;2023-02-15T08:33:48;95644.69;;;1.78;95.20
55590;BME280;41452;42.780;23.116;2023-02-15T08:36:16;95653.41;;;1.77;95.14
55590;BME280;41452;42.780;23.116;2023-02-15T08:38:43;95651.81;;;1.76;94.84
55590;BME280;41452;42.780;23.116;2023-02-15T08:41:23;95652.34;;;1.70;94.36
55590;BME280;41452;42.780;23.116;2023-02-15T08:43:51;95651.81;;;1.76;95.01
55590;BME280;41452;42.780;23.116;2023-02-15T08:46:19;95641.66;;;1.83;95.33
55590;BME280;41452;42.780;23.116;2023-02-15T08:48:45;95653.53;;;1.85;94.45
55590;BME280;41452;42.780;23.116;2023-02-15T08:51:16;95656.66;;;1.89;95.02
55590;BME280;41452;42.780;23.116;2023-02-15T08:53:44;95660.09;;;1.80;94.79
55590;BME280;41452;42.780;23.116;2023-02-15T08:56:11;95597.13;;;1.51;95.00
55590;BME280;41452;42.780;23.116;2023-02-15T08:58:37;95654.19;;;1.87;94.45
55590;BME280;41452;42.780;23.116;2023-02-15T09:01:13;95655.97;;;1.87;94.56
55590;BME280;41452;42.780;23.116;2023-02-15T09:03:43;95649.41;;;1.93;94.84
55590;BME280;41452;42.780;23.116;2023-02-15T09:06:09;95652.00;;;1.93;94.98
55590;BME280;41452;42.780;23.116;2023-02-15T09:08:34;95661.38;;;1.94;95.09
55590;BME280;41452;42.780;23.116;2023-02-15T09:11:13;95659.09;;;1.90;94.22
55590;BME280;41452;42.780;23.116;2023-02-15T09:13:42;95657.19;;;1.83;94.37
55590;BME280;41452;42.780;23.116;2023-02-15T09:16:09;95655.72;;;1.80;94.87
55590;BME280;41452;42.780;23.116;2023-02-15T09:18:39;95658.13;;;1.92;94.26
55590;BME280;41452;42.780;23.116;2023-02-15T09:21:12;95662.63;;;1.89;94.76
55590;BME280;41452;42.780;23.116;2023-02-15T09:23:43;95654.44;;;1.94;93.31
55590;BME280;41452;42.780;23.116;2023-02-15T09:26:20;95647.84;;;2.00;92.60
55590;BME280;41452;42.780;23.116;2023-02-15T09:28:47;95592.72;;;1.62;94.13
55590;BME280;41452;42.780;23.116;2023-02-15T09:31:18;95656.00;;;2.05;92.90
55590;BME280;41452;42.780;23.116;2023-02-15T09:33:45;95664.75;;;2.04;92.16
55590;BME280;41452;42.780;23.116;2023-02-15T09:36:15;95660.81;;;2.00;91.98
55590;BME280;41452;42.780;23.116;2023-02-15T09:38:41;95662.97;;;2.04;91.73
55590;BME280;41452;42.780;23.116;2023-02-15T10:01:12;95659.97;;;2.27;90.55
55590;BME280;41452;42.780;23.116;2023-02-15T10:04:02;95655.25;;;2.22;90.55
55590;BME280;41452;42.780;23.116;2023-02-15T10:06:10;95656.56;;;2.26;90.23
55590;BME280;41452;42.780;23.116;2023-02-15T10:17:19;95639.53;;;2.24;90.25
55590;BME280;41452;42.780;23.116;2023-02-15T10:20:11;95651.97;;;2.20;90.74
55590;BME280;41452;42.780;23.116;2023-02-15T10:25:54;95644.41;;;2.27;89.53
55590;BME280;41452;42.780;23.116;2023-02-15T10:31:27;95637.16;;;2.31;88.99
55590;BME280;41452;42.780;23.116;2023-02-15T10:44:04;95618.66;;;2.43;88.71
55590;BME280;41452;42.780;23.116;2023-02-15T10:46:45;95618.06;;;2.32;88.72
55590;BME280;41452;42.780;23.116;2023-02-15T10:54:34;95618.56;;;2.71;88.50
55590;BME280;41452;42.780;23.116;2023-02-15T10:57:18;95627.16;;;2.72;88.57
55590;BME280;41452;42.780;23.116;2023-02-15T11:02:49;95619.53;;;2.70;88.36
55590;BME280;41452;42.780;23.116;2023-02-15T11:08:09;95622.56;;;2.65;86.85
55590;BME280;41452;42.780;23.116;2023-02-15T11:10:50;95571.16;;;2.43;87.57
55590;BME280;41452;42.780;23.116;2023-02-15T11:13:19;95594.47;;;2.61;86.98
55590;BME280;41452;42.780;23.116;2023-02-15T11:15:57;95565.47;;;2.21;85.83
55590;BME280;41452;42.780;23.116;2023-02-15T11:19:15;95609.31;;;2.69;86.92
55590;BME280;41452;42.780;23.116;2023-02-15T11:21:48;95611.00;;;2.78;86.84
55590;BME280;41452;42.780;23.116;2023-02-15T11:24:17;95603.97;;;2.70;86.23
55590;BME280;41452;42.780;23.116;2023-02-15T11:29:28;95605.81;;;2.78;85.87
55590;BME280;41452;42.780;23.116;2023-02-15T11:32:13;95557.00;;;2.55;84.98
55590;BME280;41452;42.780;23.116;2023-02-15T11:35:10;95596.00;;;2.72;85.93
55590;BME280;41452;42.780;23.116;2023-02-15T11:38:06;95592.03;;;2.77;85.08
55590;BME280;41452;42.780;23.116;2023-02-15T11:41:04;95588.59;;;2.77;85.39
55590;BME280;41452;42.780;23.116;2023-02-15T11:43:43;95584.75;;;2.81;85.54
55590;BME280;41452;42.780;23.116;2023-02-15T11:46:13;95590.75;;;2.81;85.49
55590;BME280;41452;42.780;23.116;2023-02-15T11:48:40;95588.38;;;2.88;85.09
55590;BME280;41452;42.780;23.116;2023-02-15T11:51:12;95585.38;;;3.01;85.47
55590;BME280;41452;42.780;23.116;2023-02-15T11:53:38;95583.56;;;3.01;84.81
55590;BME280;41452;42.780;23.116;2023-02-15T11:56:04;95571.97;;;3.14;84.82
55590;BME280;41452;42.780;23.116;2023-02-15T11:58:44;95580.31;;;3.26;84.34
55590;BME280;41452;42.780;23.116;2023-02-15T12:04:04;95567.56;;;3.40;84.89
55590;BME280;41452;42.780;23.116;2023-02-15T12:06:56;95568.25;;;3.51;85.12
55590;BME280;41452;42.780;23.116;2023-02-15T12:09:55;95559.81;;;3.49;83.12
55590;BME280;41452;42.780;23.116;2023-02-15T12:12:31;95558.97;;;3.48;82.04
55590;BME280;41452;42.780;23.116;2023-02-15T12:15:11;95556.13;;;3.59;81.99
55590;BME280;41452;42.780;23.116;2023-02-15T12:17:40;95560.31;;;3.52;82.04
55590;BME280;41452;42.780;23.116;2023-02-15T12:22:38;95550.28;;;3.57;81.76
55590;BME280;41452;42.780;23.116;2023-02-15T12:25:21;95547.34;;;3.60;82.95
55590;BME280;41452;42.780;23.116;2023-02-15T12:27:47;95515.03;;;3.55;82.38
55590;BME280;41452;42.780;23.116;2023-02-15T12:30:21;95540.72;;;3.74;81.50
55590;BME280;41452;42.780;23.116;2023-02-15T12:32:52;95544.97;;;3.75;80.17
55590;BME280;41452;42.780;23.116;2023-02-15T12:35:30;95541.41;;;3.85;80.59
55590;BME280;41452;42.780;23.116;2023-02-15T12:38:02;95534.75;;;3.90;80.86
55590;BME280;41452;42.780;23.116;2023-02-15T12:40:30;95533.19;;;4.06;81.53
55590;BME280;41452;42.780;23.116;2023-02-15T12:42:55;95530.41;;;4.15;79.95
55590;BME280;41452;42.780;23.116;2023-02-15T12:47:48;95522.44;;;4.17;81.07
55590;BME280;41452;42.780;23.116;2023-02-15T12:50:32;95522.28;;;4.18;80.46
55590;BME280;41452;42.780;23.116;2023-02-15T12:55:55;95516.47;;;4.25;79.39
55590;BME280;41452;42.780;23.116;2023-02-15T12:58:23;95504.59;;;4.22;78.84
55590;BME280;41452;42.780;23.116;2023-02-15T13:01:04;95514.03;;;4.23;79.83
55590;BME280;41452;42.780;23.116;2023-02-15T13:03:29;95502.16;;;4.29;79.80
55590;BME280;41452;42.780;23.116;2023-02-15T13:05:56;95472.88;;;4.10;79.56
55590;BME280;41452;42.780;23.116;2023-02-15T13:13:22;95504.75;;;4.29;79.62
55590;BME280;41452;42.780;23.116;2023-02-15T13:15:51;95514.50;;;4.27;80.46
55590;BME280;41452;42.780;23.116;2023-02-15T13:18:38;95507.19;;;4.22;79.38
55590;BME280;41452;42.780;23.116;2023-02-15T13:21:10;95516.13;;;4.28;79.96
55590;BME280;41452;42.780;23.116;2023-02-15T13:23:37;95463.78;;;3.90;79.83
55590;BME280;41452;42.780;23.116;2023-02-15T13:26:10;95502.63;;;4.32;79.98
55590;BME280;41452;42.780;23.116;2023-02-15T13:28:45;95510.28;;;4.34;78.55
55590;BME280;41452;42.780;23.116;2023-02-15T13:31:19;95522.13;;;4.20;79.10
55590;BME280;41452;42.780;23.116;2023-02-15T13:33:53;95496.13;;;4.12;80.16
55590;BME280;41452;42.780;23.116;2023-02-15T13:36:28;95521.31;;;4.28;79.16
55590;BME280;41452;42.780;23.116;2023-02-15T13:39:02;95514.50;;;4.35;79.97
55590;BME280;41452;42.780;23.116;2023-02-15T13:53:42;95527.97;;;4.06;80.39
55590;BME280;41452;42.780;23.116;2023-02-15T14:15:48;95474.06;;;3.32;82.10
55590;BME280;41452;42.780;23.116;2023-02-15T14:21:31;95532.94;;;3.74;81.54
55590;BME280;41452;42.780;23.116;2023-02-15T14:26:49;95532.09;;;3.66;81.38
55590;BME280;41452;42.780;23.116;2023-02-15T14:32:14;95491.56;;;3.22;81.99
55590;BME280;41452;42.780;23.116;2023-02-15T14:37:13;95475.44;;;3.10;81.69
55590;BME280;41452;42.780;23.116;2023-02-15T14:39:44;95535.16;;;3.53;82.13
55590;BME280;41452;42.780;23.116;2023-02-15T14:42:40;95538.06;;;3.50;82.00
55590;BME280;41452;42.780;23.116;2023-02-15T14:45:33;95537.38;;;3.39;82.40
55590;BME280;41452;42.780;23.116;2023-02-15T14:48:33;95538.34;;;3.38;82.57
55590;BME280;41452;42.780;23.116;2023-02-15T14:51:03;95537.34;;;3.31;82.76
55590;BME280;41452;42.780;23.116;2023-02-15T14:53:37;95520.72;;;3.16;83.69
55590;BME280;41452;42.780;23.116;2023-02-15T14:58:35;95526.53;;;3.10;83.35
55590;BME280;41452;42.780;23.116;2023-02-15T15:01:08;95538.56;;;3.19;83.44
55590;BME280;41452;42.780;23.116;2023-02-15T15:03:35;95531.94;;;3.16;83.63
55590;BME280;41452;42.780;23.116;2023-02-15T15:06:03;95529.44;;;3.07;84.11
55590;BME280;41452;42.780;23.116;2023-02-15T15:08:36;95529.44;;;3.07;84.31
55590;BME280;41452;42.780;23.116;2023-02-15T15:14:00;95517.03;;;2.92;85.13
55590;BME280;41452;42.780;23.116;2023-02-15T15:19:04;95517.66;;;2.86;85.34
55590;BME280;41452;42.780;23.116;2023-02-15T15:49:22;95538.09;;;2.45;86.69
55590;BME280;41452;42.780;23.116;2023-02-15T15:51:49;95517.25;;;2.28;86.59
55590;BME280;41452;42.780;23.116;2023-02-15T15:54:20;95550.78;;;2.48;86.23
55590;BME280;41452;42.780;23.116;2023-02-15T15:56:58;95540.91;;;2.52;85.40
55590;BME280;41452;42.780;23.116;2023-02-15T15:59:30;95545.16;;;2.53;85.08
55590;BME280;41452;42.780;23.116;2023-02-15T16:01:56;95546.91;;;2.52;84.84
55590;BME280;41452;42.780;23.116;2023-02-15T16:04:31;95547.91;;;2.51;84.25
55590;BME280;41452;42.780;23.116;2023-02-15T16:07:13;95558.25;;;2.51;84.67
55590;BME280;41452;42.780;23.116;2023-02-15T16:09:38;95561.81;;;2.50;84.82
55590;BME280;41452;42.780;23.116;2023-02-15T16:12:04;95560.72;;;2.53;84.67
55590;BME280;41452;42.780;23.116;2023-02-15T16:14:40;95551.44;;;2.50;83.88
55590;BME280;41452;42.780;23.116;2023-02-15T16:17:18;95537.69;;;2.32;83.38
55590;BME280;41452;42.780;23.116;2023-02-15T16:19:45;95569.19;;;2.37;83.99
55590;BME280;41452;42.780;23.116;2023-02-15T16:22:15;95554.34;;;2.29;84.39
55590;BME280;41452;42.780;23.116;2023-02-15T16:25:03;95565.03;;;2.26;84.38
55590;BME280;41452;42.780;23.116;2023-02-15T16:27:37;95561.41;;;2.19;84.23